Terminal Aerodrome Forecast
Issued by NWS

Home | Current Version | Previous Version | Text Only | Print | Product List | Glossary On
Versions: 1 2 3 4 5 6 7 8 9 10 11 12 13 14 15 16 17 18 19 20 21 22 23 24 25 26
000
FTAK31 PANC 290535
TAFAAQ
TAF
PAAQ 290535Z 2906/3006 VRB02KT P6SM BCFG FEW002 SCT200
      TEMPO 2906/2910 3SM BR
     FM300000 VRB03KT P6SM -SN OVC045
     FM300200 06005KT 3SM -SN OVC025=

USA.gov is the U.S. government's official web portal to all federal, state and local government web resources and services.